createdAt,value
2023-04-05T00:01:13.791Z,96505.16
2023-04-05T00:03:42.801Z,96505.16
2023-04-05T00:06:13.402Z,96499.13
2023-04-05T00:08:41.861Z,96490.81
2023-04-05T00:11:09.939Z,96493.25
2023-04-05T00:13:39.342Z,96485.72
2023-04-05T00:16:08.514Z,96480.16
2023-04-05T00:18:38.379Z,96478.88
2023-04-05T00:21:06.941Z,96481.50
2023-04-05T00:23:38.576Z,96482.31
2023-04-05T00:26:06.946Z,96487.72
2023-04-05T00:28:35.762Z,96478.38
2023-04-05T00:31:06.387Z,96478.53
2023-04-05T00:33:34.492Z,96480.03
2023-04-05T00:36:12.789Z,96476.44
2023-04-05T00:38:41.209Z,96485.91
2023-04-05T00:41:09.302Z,96474.94
2023-04-05T00:43:37.863Z,96480.34
2023-04-05T00:46:07.613Z,96476.94
2023-04-05T00:48:35.773Z,96472.34
2023-04-05T00:51:03.891Z,96455.53
2023-04-05T00:53:32.221Z,96465.00
2023-04-05T00:56:01.403Z,96460.75
2023-04-05T00:58:29.464Z,96462.22
2023-04-05T01:01:02.728Z,96459.78
2023-04-05T01:03:34.532Z,96458.31
2023-04-05T01:06:09.917Z,96462.06
2023-04-05T01:08:41.807Z,96453.09
2023-04-05T01:11:10.481Z,96452.75
2023-04-05T01:13:38.587Z,96454.75
2023-04-05T01:16:07.059Z,96442.13
2023-04-05T01:18:38.020Z,96439.88
2023-04-05T01:21:20.987Z,96447.22
2023-04-05T01:23:55.182Z,96450.97
2023-04-05T01:26:34.971Z,96446.41
2023-04-05T01:29:39.293Z,96442.47
2023-04-05T01:32:13.184Z,96443.78
2023-04-05T01:34:45.232Z,96436.59
2023-04-05T01:37:14.179Z,96446.41
2023-04-05T01:39:42.672Z,96437.75
2023-04-05T01:42:11.300Z,96435.16
2023-04-05T01:44:41.644Z,96441.34
2023-04-05T01:47:11.109Z,96432.53
2023-04-05T01:49:39.338Z,96445.59
2023-04-05T01:52:08.850Z,96439.22
2023-04-05T01:54:37.072Z,96431.72
2023-04-05T01:57:05.710Z,96435.78
2023-04-05T01:59:33.797Z,96429.09
2023-04-05T02:02:01.954Z,96432.03
2023-04-05T02:04:31.400Z,96428.28
2023-04-05T02:07:00.648Z,96425.19
2023-04-05T02:09:28.698Z,96426.66
2023-04-05T02:11:57.378Z,96423.06
2023-04-05T02:14:25.933Z,96421.44
2023-04-05T02:16:55.852Z,96425.50
2023-04-05T02:19:26.553Z,96426.47
2023-04-05T02:21:56.488Z,96427.28
2023-04-05T02:24:24.618Z,96420.78
2023-04-05T02:26:52.737Z,96419.97
2023-04-05T02:29:20.854Z,96428.94
2023-04-05T02:31:50.548Z,96421.59
2023-04-05T02:34:19.040Z,96421.75
2023-04-05T02:36:47.371Z,96426.31
2023-04-05T02:39:16.906Z,96428.44
2023-04-05T02:41:45.073Z,96429.75
2023-04-05T02:44:13.669Z,96434.16
2023-04-05T02:46:42.174Z,96430.41
2023-04-05T02:49:10.901Z,96429.59
2023-04-05T02:51:39.470Z,96430.56
2023-04-05T02:54:11.008Z,96428.44
2023-04-05T02:56:42.926Z,96426.63
2023-04-05T02:59:15.801Z,96421.91
2023-04-05T03:01:45.683Z,96425.81
2023-04-05T03:04:23.069Z,96423.34
2023-04-05T03:06:52.286Z,96421.09
2023-04-05T03:09:22.496Z,96417.16
2023-04-05T03:11:56.441Z,96423.34
2023-04-05T03:14:24.848Z,96420.13
2023-04-05T03:16:54.031Z,96417.81
2023-04-05T03:19:37.696Z,96410.97
2023-04-05T03:22:15.060Z,96412.44
2023-04-05T03:24:43.710Z,96408.34
2023-04-05T03:27:16.179Z,96412.44
2023-04-05T03:29:58.537Z,96415.19
2023-04-05T03:32:26.974Z,96413.06
2023-04-05T03:35:06.353Z,96405.56
2023-04-05T03:37:36.070Z,96405.38
2023-04-05T03:40:10.637Z,96410.75
2023-04-05T03:42:40.166Z,96419.25
2023-04-05T03:45:09.540Z,96415.50
2023-04-05T03:47:37.718Z,96416.63
2023-04-05T03:50:09.427Z,96426.09
2023-04-05T03:52:37.443Z,96427.22
2023-04-05T03:55:07.314Z,96419.56
2023-04-05T03:57:38.303Z,96416.47
2023-04-05T04:00:20.931Z,96414.69
2023-04-05T04:03:05.157Z,96413.34
2023-04-05T04:05:39.349Z,96415.34
2023-04-05T04:08:09.667Z,96414.19
2023-04-05T04:10:39.195Z,96420.22
2023-04-05T04:13:19.313Z,96414.53
2023-04-05T04:15:55.132Z,96423.16
2023-04-05T04:18:47.421Z,96415.66
2023-04-05T04:21:51.089Z,96413.69
2023-04-05T04:24:46.248Z,96410.44
2023-04-05T04:27:46.902Z,96410.59
2023-04-05T04:30:15.838Z,96411.28
2023-04-05T04:33:09.501Z,96409.50
2023-04-05T04:36:14.065Z,96409.84
2023-04-05T04:39:20.111Z,96414.72
2023-04-05T04:42:12.060Z,96406.25
2023-04-05T04:45:03.179Z,96414.56
2023-04-05T04:47:52.981Z,96412.59
2023-04-05T04:50:39.319Z,96413.72
2023-04-05T04:53:07.898Z,96416.34
2023-04-05T04:55:36.215Z,96412.94
2023-04-05T04:58:09.852Z,96420.13
2023-04-05T05:00:39.944Z,96410.50
2023-04-05T05:03:11.390Z,96416.84
2023-04-05T05:05:44.807Z,96417.66
2023-04-05T05:08:12.980Z,96420.63
2023-04-05T05:10:42.734Z,96421.75
2023-04-05T05:13:11.719Z,96423.38
2023-04-05T05:15:40.974Z,96422.06
2023-04-05T05:18:10.398Z,96417.16
2023-04-05T05:20:38.696Z,96419.94
2023-04-05T05:23:08.345Z,96419.25
2023-04-05T05:25:38.400Z,96419.41
2023-04-05T05:28:06.816Z,96412.72
2023-04-05T05:30:34.908Z,96420.69
2023-04-05T05:33:03.083Z,96416.09
2023-04-05T05:35:31.130Z,96412.31
2023-04-05T05:37:59.186Z,96409.34
2023-04-05T05:40:28.662Z,96421.53
2023-04-05T05:42:56.731Z,96416.06
2023-04-05T05:45:25.336Z,96423.41
2023-04-05T05:47:53.443Z,96420.03
2023-04-05T05:50:21.789Z,96418.50
2023-04-05T05:52:49.870Z,96417.56
2023-04-05T05:55:18.027Z,96414.19
2023-04-05T05:57:47.470Z,96413.59
2023-04-05T06:00:16.997Z,96416.63
2023-04-05T06:02:45.343Z,96415.94
2023-04-05T06:05:13.517Z,96406.69
2023-04-05T06:07:41.550Z,96407.69
2023-04-05T06:10:10.242Z,96409.88
2023-04-05T06:12:38.276Z,96403.69
2023-04-05T06:15:09.738Z,96403.88
2023-04-05T06:17:42.214Z,96404.75
2023-04-05T06:20:11.629Z,96410.94
2023-04-05T06:22:40.348Z,96405.13
2023-04-05T06:25:09.447Z,96400.28
2023-04-05T06:27:37.883Z,96406.50
2023-04-05T06:30:06.824Z,96402.81
2023-04-05T06:32:36.526Z,96399.53
2023-04-05T06:35:05.079Z,96395.81
2023-04-05T06:37:33.166Z,96393.34
2023-04-05T06:40:01.239Z,96397.78
2023-04-05T06:42:29.626Z,96390.31
2023-04-05T06:45:04.326Z,96393.69
2023-04-05T06:47:36.362Z,96387.34
2023-04-05T06:50:04.537Z,96385.31
2023-04-05T06:52:33.593Z,96387.84
2023-04-05T06:55:02.321Z,96389.19
2023-04-05T06:57:30.344Z,96393.81
2023-04-05T06:59:58.634Z,96391.28
2023-04-05T07:02:26.983Z,96385.69
2023-04-05T07:05:03.807Z,96383.59
2023-04-05T07:07:31.852Z,96386.66
2023-04-05T07:10:00.533Z,96396.28
2023-04-05T07:12:28.686Z,96389.63
2023-04-05T07:14:56.787Z,96386.84
2023-04-05T07:17:25.627Z,96396.22
2023-04-05T07:19:53.745Z,96387.53
2023-04-05T07:22:23.506Z,96383.91
2023-04-05T07:24:53.047Z,96391.59
2023-04-05T07:27:21.226Z,96390.19
2023-04-05T07:29:49.529Z,96393.84
2023-04-05T07:32:17.626Z,96389.19
2023-04-05T07:34:45.874Z,96385.94
2023-04-05T07:37:14.434Z,96387.38
2023-04-05T07:39:43.861Z,96388.41
2023-04-05T07:42:11.904Z,96381.09
2023-04-05T07:44:39.940Z,96388.00
2023-04-05T07:47:07.945Z,96382.88
2023-04-05T07:49:37.967Z,96383.50
2023-04-05T07:52:06.579Z,96387.13
2023-04-05T07:54:34.965Z,96381.94
2023-04-05T07:57:04.451Z,96380.69
2023-04-05T07:59:32.702Z,96381.47
2023-04-05T08:02:08.210Z,96380.44
2023-04-05T08:04:42.164Z,96385.69
2023-04-05T08:07:10.353Z,96384.56
2023-04-05T08:09:38.388Z,96387.25
2023-04-05T08:12:08.406Z,96389.28
2023-04-05T08:14:37.035Z,96387.91
2023-04-05T08:17:05.462Z,96390.97
2023-04-05T08:19:33.538Z,96386.88
2023-04-05T08:22:01.652Z,96385.69
2023-04-05T08:24:29.741Z,96389.94
2023-04-05T08:26:57.806Z,96385.47
2023-04-05T08:29:27.553Z,96378.56
2023-04-05T08:31:57.812Z,96386.63
2023-04-05T08:34:25.947Z,96374.97
2023-04-05T08:36:54.024Z,96375.19
2023-04-05T08:39:22.255Z,96376.19
2023-04-05T08:41:51.751Z,96369.47
2023-04-05T08:44:20.244Z,96372.53
2023-04-05T08:46:49.700Z,96370.97
2023-04-05T08:49:17.710Z,96368.97
2023-04-05T08:51:45.790Z,96363.94
2023-04-05T08:54:14.475Z,96367.53
2023-04-05T08:56:42.512Z,96375.28
2023-04-05T08:59:11.934Z,96361.75
2023-04-05T09:01:42.792Z,96369.53
2023-04-05T09:04:15.537Z,96372.44
2023-04-05T09:06:43.572Z,96373.25
2023-04-05T09:09:11.648Z,96370.44
2023-04-05T09:11:40.036Z,96376.66
2023-04-05T09:14:08.335Z,96371.28
2023-04-05T09:16:38.495Z,96374.16
2023-04-05T09:19:06.642Z,96373.66
2023-04-05T09:22:00.623Z,96369.91
2023-04-05T09:24:33.500Z,96367.25
2023-04-05T09:27:06.316Z,96364.56
2023-04-05T09:29:34.420Z,96368.31
2023-04-05T09:32:05.641Z,96363.44
2023-04-05T09:34:34.053Z,96365.72
2023-04-05T09:37:03.550Z,96369.88
2023-04-05T09:39:32.641Z,96369.19
2023-04-05T09:42:06.332Z,96369.47
2023-04-05T09:44:50.054Z,96369.94
2023-04-05T09:47:18.451Z,96365.81
2023-04-05T09:49:46.566Z,96370.16
2023-04-05T09:52:24.240Z,96358.28
2023-04-05T09:54:53.140Z,96361.38
2023-04-05T09:57:21.208Z,96361.59
2023-04-05T09:59:49.266Z,96360.44
2023-04-05T10:02:17.421Z,96359.47
2023-04-05T10:04:46.660Z,96357.97
2023-04-05T10:07:15.963Z,96354.00
2023-04-05T10:09:46.235Z,96349.31
2023-04-05T10:12:15.644Z,96357.19
2023-04-05T10:14:43.769Z,96361.13
2023-04-05T10:17:13.947Z,96352.78
2023-04-05T10:20:03.430Z,96350.22
2023-04-05T10:22:33.910Z,96350.47
2023-04-05T10:25:06.670Z,96355.78
2023-04-05T10:27:36.629Z,96359.59
2023-04-05T10:30:06.440Z,96345.16
2023-04-05T10:32:41.996Z,96348.97
2023-04-05T10:35:11.369Z,96346.44
2023-04-05T10:37:48.350Z,96348.13
2023-04-05T10:40:17.843Z,96351.66
2023-04-05T10:42:45.973Z,96349.78
2023-04-05T10:45:15.674Z,96353.59
2023-04-05T10:47:46.090Z,96345.88
2023-04-05T10:50:21.596Z,96338.56
2023-04-05T10:52:49.830Z,96338.78
2023-04-05T10:55:20.016Z,96340.44
2023-04-05T10:57:48.138Z,96341.44
2023-04-05T11:00:17.013Z,96341.78
2023-04-05T11:02:45.207Z,96352.56
2023-04-05T11:05:31.332Z,96341.84
2023-04-05T11:08:03.792Z,96337.44
2023-04-05T11:10:33.589Z,96341.56
2023-04-05T11:13:09.046Z,96344.03
2023-04-05T11:15:37.261Z,96340.59
2023-04-05T11:18:06.765Z,96343.28
2023-04-05T11:20:45.320Z,96334.34
2023-04-05T11:23:15.729Z,96328.81
2023-04-05T11:25:49.946Z,96337.06
2023-04-05T11:28:25.288Z,96327.44
2023-04-05T11:30:56.602Z,96326.44
2023-04-05T11:33:37.903Z,96317.22
2023-04-05T11:36:06.312Z,96310.38
2023-04-05T11:38:34.465Z,96312.16
2023-04-05T11:41:17.574Z,96312.06
2023-04-05T11:43:47.516Z,96315.44
2023-04-05T11:46:16.212Z,96318.78
2023-04-05T11:48:44.323Z,96307.34
2023-04-05T11:51:12.430Z,96305.34
2023-04-05T11:53:40.495Z,96302.47
2023-04-05T11:56:12.887Z,96310.50
2023-04-05T11:58:41.018Z,96298.41
2023-04-05T12:01:09.242Z,96299.78
2023-04-05T12:03:37.658Z,96300.78
2023-04-05T12:06:06.583Z,96301.22
2023-04-05T12:08:42.168Z,96297.97
2023-04-05T12:11:12.293Z,96294.75
2023-04-05T12:13:40.448Z,96296.59
2023-04-05T12:16:09.747Z,96295.97
2023-04-05T12:18:38.232Z,96294.75
2023-04-05T12:21:08.030Z,96291.31
2023-04-05T12:23:37.245Z,96288.59
2023-04-05T12:26:07.444Z,96291.72
2023-04-05T12:28:52.881Z,96288.53
2023-04-05T12:31:39.112Z,96279.06
2023-04-05T12:34:07.309Z,96283.06
2023-04-05T12:36:35.622Z,96279.53
2023-04-05T12:39:07.568Z,96280.34
2023-04-05T12:41:36.710Z,96268.53
2023-04-05T12:44:07.845Z,96277.41
2023-04-05T12:46:42.742Z,96270.16
2023-04-05T12:49:12.356Z,96277.47
2023-04-05T12:51:43.306Z,96266.44
2023-04-05T12:54:13.397Z,96265.41
2023-04-05T12:56:41.579Z,96272.06
2023-04-05T12:59:11.237Z,96267.13
2023-04-05T13:01:39.838Z,96268.28
2023-04-05T13:04:15.455Z,96266.91
2023-04-05T13:06:47.581Z,96254.94
2023-04-05T13:09:15.996Z,96261.56
2023-04-05T13:11:44.106Z,96253.09
2023-04-05T13:14:13.600Z,96238.31
2023-04-05T13:16:42.177Z,96250.91
2023-04-05T13:19:10.270Z,96255.22
2023-04-05T13:21:38.277Z,96245.38
2023-04-05T13:24:06.516Z,96243.50
2023-04-05T13:26:34.559Z,96255.28
2023-04-05T13:29:03.642Z,96250.59
2023-04-05T13:31:33.931Z,96240.94
2023-04-05T13:34:02.112Z,96242.03
2023-04-05T13:36:30.191Z,96246.31
2023-04-05T13:38:58.234Z,96240.09
2023-04-05T13:41:26.489Z,96236.66
2023-04-05T13:43:55.280Z,96230.53
2023-04-05T13:46:23.404Z,96230.31
2023-04-05T13:48:52.844Z,96226.81
2023-04-05T13:51:20.931Z,96232.31
2023-04-05T13:53:48.980Z,96226.34
2023-04-05T13:56:17.163Z,96223.38
2023-04-05T13:58:45.341Z,96228.31
2023-04-05T14:01:13.764Z,96223.66
2023-04-05T14:03:41.936Z,96217.41
2023-04-05T14:06:11.703Z,96215.13
2023-04-05T14:08:39.779Z,96213.84
2023-04-05T14:11:08.291Z,96216.59
2023-04-05T14:13:36.431Z,96213.47
2023-04-05T14:16:04.648Z,96205.91
2023-04-05T14:18:32.824Z,96204.09
2023-04-05T14:21:01.017Z,96202.03
2023-04-05T14:23:30.942Z,96195.81
2023-04-05T14:25:59.170Z,96199.78
2023-04-05T14:28:27.359Z,96199.28
2023-04-05T14:30:55.688Z,96198.09
2023-04-05T14:33:24.488Z,96197.97
2023-04-05T14:35:54.089Z,96190.03
2023-04-05T14:38:22.774Z,96186.38
2023-04-05T14:40:52.353Z,96193.72
2023-04-05T14:43:20.542Z,96188.41
2023-04-05T14:45:48.846Z,96193.97
2023-04-05T14:48:17.164Z,96185.69
2023-04-05T14:50:45.435Z,96191.72
2023-04-05T14:53:14.082Z,96182.38
2023-04-05T14:55:42.212Z,96182.84
2023-04-05T14:58:14.254Z,96182.94
2023-04-05T15:00:42.981Z,96183.84
2023-04-05T15:03:11.924Z,96188.13
2023-04-05T15:05:40.198Z,96182.53
2023-04-05T15:08:08.365Z,96177.84
2023-04-05T15:10:36.541Z,96179.22
2023-04-05T15:13:04.771Z,96171.78
2023-04-05T15:15:34.359Z,96169.22
2023-04-05T15:18:03.489Z,96169.31
2023-04-05T15:20:32.225Z,96162.66
2023-04-05T15:23:00.589Z,96161.94
2023-04-05T15:25:28.801Z,96164.34
2023-04-05T15:27:59.719Z,96159.50
2023-04-05T15:30:29.939Z,96159.44
2023-04-05T15:32:59.953Z,96158.13
2023-04-05T15:35:28.305Z,96155.41
2023-04-05T15:37:56.524Z,96150.69
2023-04-05T15:40:24.747Z,96159.00
2023-04-05T15:42:52.882Z,96162.84
2023-04-05T15:45:21.479Z,96163.56
2023-04-05T15:47:49.728Z,96170.75
2023-04-05T15:50:20.482Z,96166.75
2023-04-05T15:52:48.883Z,96166.25
2023-04-05T15:55:16.985Z,96164.19
2023-04-05T15:57:45.177Z,96168.00
2023-04-05T16:00:14.591Z,96168.31
2023-04-05T16:02:43.359Z,96171.94
2023-04-05T16:05:11.693Z,96177.53
2023-04-05T16:07:41.343Z,96180.41
2023-04-05T16:10:10.986Z,96173.38
2023-04-05T16:12:39.476Z,96182.16
2023-04-05T16:15:08.534Z,96174.19
2023-04-05T16:17:36.833Z,96174.97
2023-04-05T16:20:05.503Z,96176.13
2023-04-05T16:22:33.640Z,96178.06
2023-04-05T16:25:03.668Z,96171.59
2023-04-05T16:27:33.691Z,96173.09
2023-04-05T16:30:01.868Z,96169.53
2023-04-05T16:32:30.033Z,96166.41
2023-04-05T16:34:58.194Z,96165.22
2023-04-05T16:37:26.423Z,96163.16
2023-04-05T16:39:55.056Z,96170.06
2023-04-05T16:42:24.647Z,96158.63
2023-04-05T16:44:52.805Z,96170.16
2023-04-05T16:47:21.232Z,96169.31
2023-04-05T16:49:49.368Z,96164.44
2023-04-05T16:52:17.921Z,96164.88
2023-04-05T16:54:46.079Z,96154.59
2023-04-05T16:57:14.433Z,96167.25
2023-04-05T16:59:44.191Z,96159.75
2023-04-05T17:02:12.394Z,96159.63
2023-04-05T17:04:40.507Z,96162.59
2023-04-05T17:07:09.185Z,96164.59
2023-04-05T17:09:37.323Z,96168.88
2023-04-05T17:12:05.781Z,96161.25
2023-04-05T17:14:33.950Z,96166.59
2023-04-05T17:17:03.531Z,96168.50
2023-04-05T17:19:32.218Z,96167.78
2023-04-05T17:22:00.396Z,96171.38
2023-04-05T17:24:29.328Z,96166.78
2023-04-05T17:26:57.572Z,96167.75
2023-04-05T17:29:25.936Z,96171.53
2023-04-05T17:31:54.457Z,96173.25
2023-04-05T17:34:24.001Z,96174.19
2023-04-05T17:36:52.853Z,96178.94
2023-04-05T17:39:21.044Z,96178.25
2023-04-05T17:41:50.925Z,96180.34
2023-04-05T17:44:19.924Z,96183.22
2023-04-05T17:46:57.350Z,96182.44
2023-04-05T17:49:36.512Z,96187.78
2023-04-05T17:52:04.843Z,96183.91
2023-04-05T17:54:37.084Z,96184.97
2023-04-05T17:57:05.507Z,96191.91
2023-04-05T17:59:34.239Z,96196.41
2023-04-05T18:02:02.521Z,96188.50
2023-04-05T18:04:30.902Z,96194.25
2023-04-05T18:07:00.768Z,96204.00
2023-04-05T18:09:29.148Z,96197.72
2023-04-05T18:11:57.636Z,96204.25
2023-04-05T18:14:26.348Z,96204.06
2023-04-05T18:16:54.481Z,96208.16
2023-04-05T18:19:22.710Z,96202.69
2023-04-05T18:21:50.854Z,96206.34
2023-04-05T18:24:20.696Z,96208.56
2023-04-05T18:26:48.872Z,96211.03
2023-04-05T18:29:17.105Z,96205.53
2023-04-05T18:31:45.380Z,96210.63
2023-04-05T18:34:13.563Z,96207.38
2023-04-05T18:36:41.822Z,96215.72
2023-04-05T18:39:10.055Z,96224.81
2023-04-05T18:41:40.205Z,96214.25
2023-04-05T18:44:09.819Z,96216.88
2023-04-05T18:46:38.679Z,96219.13
2023-04-05T18:49:07.025Z,96219.72
2023-04-05T18:51:35.419Z,96221.34
2023-04-05T18:54:04.034Z,96219.28
2023-04-05T18:56:32.614Z,96221.69
2023-04-05T18:59:02.270Z,96219.47
2023-04-05T19:01:30.601Z,96223.13
2023-04-05T19:04:00.487Z,96221.50
2023-04-05T19:06:29.443Z,96226.16
2023-04-05T19:08:57.570Z,96221.88
2023-04-05T19:11:25.803Z,96226.56
2023-04-05T19:13:54.539Z,96223.31
2023-04-05T19:16:24.064Z,96224.50
2023-04-05T19:18:52.875Z,96226.53
2023-04-05T19:21:21.184Z,96232.22
2023-04-05T19:23:49.951Z,96226.13
2023-04-05T19:26:19.493Z,96237.47
2023-04-05T19:28:48.849Z,96227.75
2023-04-05T19:31:17.061Z,96230.59
2023-04-05T19:33:46.684Z,96228.19
2023-04-05T19:36:14.967Z,96234.28
2023-04-05T19:38:43.440Z,96231.84
2023-04-05T19:41:11.629Z,96230.84
2023-04-05T19:43:41.170Z,96232.66
2023-04-05T19:46:09.923Z,96236.09
2023-04-05T19:48:39.308Z,96227.38
2023-04-05T19:51:09.595Z,96231.22
2023-04-05T19:53:42.633Z,96227.16
2023-04-05T19:56:12.702Z,96229.00
2023-04-05T19:58:40.980Z,96226.38
2023-04-05T20:01:09.148Z,96228.19
2023-04-05T20:03:38.127Z,96222.91
2023-04-05T20:06:09.440Z,96226.56
2023-04-05T20:08:38.744Z,96217.22
2023-04-05T20:11:12.708Z,96223.69
2023-04-05T20:13:43.887Z,96211.53
2023-04-05T20:16:13.204Z,96220.44
2023-04-05T20:18:42.389Z,96214.16
2023-04-05T20:21:12.108Z,96221.44
2023-04-05T20:23:40.438Z,96210.28
2023-04-05T20:26:08.616Z,96212.34
2023-04-05T20:28:38.822Z,96212.53
2023-04-05T20:31:08.994Z,96201.56
2023-04-05T20:33:48.352Z,96203.44
2023-04-05T20:36:20.054Z,96200.81
2023-04-05T20:38:48.527Z,96206.88
2023-04-05T20:41:18.119Z,96201.03
2023-04-05T20:43:46.439Z,96198.59
2023-04-05T20:46:14.745Z,96197.41
2023-04-05T20:48:43.072Z,96196.78
2023-04-05T20:51:14.410Z,96207.94
2023-04-05T20:53:44.144Z,96201.44
2023-04-05T20:56:12.605Z,96200.22
2023-04-05T20:58:41.520Z,96194.53
2023-04-05T21:01:09.719Z,96201.63
2023-04-05T21:03:39.370Z,96194.97
2023-04-05T21:06:08.506Z,96196.34
2023-04-05T21:08:37.174Z,96193.34
2023-04-05T21:11:06.865Z,96191.50
2023-04-05T21:13:35.797Z,96195.56
2023-04-05T21:16:03.987Z,96195.56
2023-04-05T21:18:32.224Z,96189.88
2023-04-05T21:21:00.989Z,96196.78
2023-04-05T21:23:30.114Z,96194.53
2023-04-05T21:25:59.750Z,96194.72
2023-04-05T21:28:29.290Z,96194.72
2023-04-05T21:30:57.497Z,96193.09
2023-04-05T21:33:26.097Z,96191.28
2023-04-05T21:35:54.236Z,96184.19
2023-04-05T21:38:22.473Z,96188.84
2023-04-05T21:40:51.185Z,96190.66
2023-04-05T21:43:19.339Z,96187.44
2023-04-05T21:45:48.987Z,96184.00
2023-04-05T21:48:17.177Z,96167.97
2023-04-05T21:50:45.381Z,96179.50
2023-04-05T21:53:14.721Z,96175.25
2023-04-05T21:55:42.939Z,96173.84
2023-04-05T21:58:11.113Z,96167.34
2023-04-05T22:00:39.378Z,96173.03
2023-04-05T22:03:08.982Z,96169.97
2023-04-05T22:05:38.788Z,96172.03
2023-04-05T22:08:08.686Z,96165.31
2023-04-05T22:10:37.740Z,96163.06
2023-04-05T22:13:06.029Z,96167.72
2023-04-05T22:15:34.355Z,96168.75
2023-04-05T22:18:02.998Z,96165.91
2023-04-05T22:20:32.596Z,96172.84
2023-04-05T22:23:01.233Z,96174.03
2023-04-05T22:25:29.492Z,96169.41
2023-04-05T22:28:00.151Z,96169.81
2023-04-05T22:30:28.950Z,96166.78
2023-04-05T22:32:57.379Z,96170.84
2023-04-05T22:35:25.966Z,96167.81
2023-04-05T22:37:55.653Z,96167.38
2023-04-05T22:40:27.004Z,96168.81
2023-04-05T22:42:55.266Z,96169.84
2023-04-05T22:45:23.639Z,96164.78
2023-04-05T22:47:52.243Z,96164.00
2023-04-05T22:50:20.482Z,96161.34
2023-04-05T22:52:48.603Z,96161.78
2023-04-05T22:55:18.295Z,96155.06
2023-04-05T22:57:46.580Z,96158.31
2023-04-05T23:00:15.779Z,96164.00
2023-04-05T23:02:44.076Z,96156.09
2023-04-05T23:05:13.145Z,96152.63
2023-04-05T23:07:41.395Z,96158.50
2023-04-05T23:10:10.240Z,96148.78
2023-04-05T23:12:39.811Z,96153.03
2023-04-05T23:15:09.000Z,96152.22
2023-04-05T23:17:37.624Z,96147.56
2023-04-05T23:20:06.947Z,96145.94
2023-04-05T23:22:36.094Z,96147.94
2023-04-05T23:25:04.502Z,96149.16
2023-04-05T23:27:32.662Z,96139.44
2023-04-05T23:30:02.666Z,96139.03
2023-04-05T23:32:30.984Z,96147.53
2023-04-05T23:34:59.128Z,96141.66
2023-04-05T23:37:27.326Z,96141.44
2023-04-05T23:39:55.629Z,96149.16
2023-04-05T23:42:23.751Z,96143.69
2023-04-05T23:44:52.295Z,96143.69
2023-04-05T23:47:21.868Z,96135.94
2023-04-05T23:49:50.112Z,96134.72
2023-04-05T23:52:18.294Z,96131.06
2023-04-05T23:54:46.489Z,96133.72
2023-04-05T23:57:15.122Z,96135.91
2023-04-05T23:59:43.391Z,96132.25
